Kansai — JD3272 — position and weather

sailwx.info

Track history (hours):
 
Tides and Currents Weather Stations Pressure Air Temp Water Temp Dewpoint Dewpoint Depression Visibility Wind Speed Wind Dir Waves Ship Positions

Kansai

Last reported at 2016-Jun-27 15:33 UTC. Time now 2016-Jun-28 09:48 UTC.
Position N 34°37' E 134°58'.

Length 73 m; draft 4.2 m.

Type: Cargo ship. MMSI: 431003134.

Date/timePositionNaut miles runAvg speedWind from/ knotsBaromVisibWave heightAir tempDewpointWater temp
2016-Jun-27 15:33N 34°37' E 134°58'9 9.5
2016-Jun-27 14:33N 34°29' E 135°03'234 7.8
2016-Jun-26 08:34N 35°09' E 139°44'9 9.4
2016-Jun-26 07:33N 35°18' E 139°44'8 7.7
2016-Jun-26 06:34N 35°26' E 139°45'5 5.1
2016-Jun-26 05:34N 35°29' E 139°50'5 5.1
2016-Jun-26 04:33N 35°32' E 139°54'6 5.5
2016-Jun-26 03:33N 35°37' E 139°58'4 3.9
2016-Jun-26 02:33N 35°41' E 139°57'0 0.0
2016-Jun-26 01:33N 35°41' E 139°57'0 0.0
2016-Jun-26 00:33N 35°41' E 139°57'0 0.0
2016-Jun-25 23:33N 35°41' E 139°57'0 0.0
2016-Jun-25 22:33N 35°41' E 139°57'0 0.0
2016-Jun-25 21:33N 35°41' E 139°57'0 0.0
2016-Jun-25 20:34N 35°41' E 139°57'0 0.0
2016-Jun-25 19:33N 35°41' E 139°57'0 0.0
2016-Jun-25 18:33N 35°41' E 139°57'0 0.0
2016-Jun-25 17:33N 35°41' E 139°57'0 0.0
2016-Jun-25 16:33N 35°41' E 139°57'0 0.0
2016-Jun-25 15:33N 35°41' E 139°57'0 0.0
2016-Jun-25 14:33N 35°41' E 139°57'0 0.0
2016-Jun-25 13:33N 35°41' E 139°57'0 0.0
2016-Jun-25 12:33N 35°41' E 139°57'0 0.0
2016-Jun-25 11:33N 35°41' E 139°57'0 0.0
2016-Jun-25 10:33N 35°41' E 139°57'0 0.0
2016-Jun-25 09:32N 35°41' E 139°57'0 0.0
2016-Jun-25 08:32N 35°41' E 139°57'0 0.0
2016-Jun-25 07:33N 35°41' E 139°57'0 0.0
2016-Jun-25 06:33N 35°41' E 139°57'0 0.0
2016-Jun-25 05:32N 35°41' E 139°57'0 0.0
2016-Jun-25 04:33N 35°41' E 139°57'0 0.0
2016-Jun-25 03:33N 35°41' E 139°57'0 0.0
2016-Jun-25 02:33N 35°41' E 139°57'0 0.0
2016-Jun-25 01:34N 35°41' E 139°57'0 0.0
2016-Jun-25 00:33N 35°41' E 139°57'0 0.0
2016-Jun-24 23:33N 35°41' E 139°57'0 0.0
2016-Jun-24 22:33N 35°41' E 139°57'0 0.0
2016-Jun-24 21:33N 35°41' E 139°57'0 0.0
2016-Jun-24 20:33N 35°41' E 139°57'0 0.0
2016-Jun-24 19:33N 35°41' E 139°57'5 4.6
2016-Jun-24 18:33N 35°36' E 139°58'1110.7
2016-Jun-24 17:33N 35°27' E 139°50'1110.6
2016-Jun-24 16:33N 35°18' E 139°45'1010.5
2016-Jun-24 15:33N 35°07' E 139°46'244 5.3
2016-Jun-22 17:33N 34°05' E 135°00'1110.0
2016-Jun-22 16:27N 34°16' E 134°59'9 9.3
2016-Jun-22 15:28N 34°24' E 135°04'910.2
2016-Jun-22 14:33N 34°31' E 135°12'9 9.4
2016-Jun-22 13:33N 34°40' E 135°15'2 2.1
2016-Jun-22 12:33N 34°42' E 135°15'0 0.0
2016-Jun-22 11:33N 34°42' E 135°15'0 0.0
2016-Jun-22 10:33N 34°42' E 135°15'0 0.0
2016-Jun-22 09:33N 34°42' E 135°15'0 0.0
2016-Jun-22 08:33N 34°42' E 135°15'0 0.0
2016-Jun-22 07:33N 34°42' E 135°15'0 0.0
2016-Jun-22 06:33N 34°42' E 135°15'0 0.0
2016-Jun-22 05:33N 34°42' E 135°15'0 0.0
2016-Jun-22 04:33N 34°42' E 135°15'0 0.0
2016-Jun-22 03:33N 34°42' E 135°15'0 0.0
2016-Jun-22 02:33N 34°42' E 135°15'0 0.0
2016-Jun-22 01:33N 34°42' E 135°15'0 0.0
2016-Jun-22 00:33N 34°42' E 135°15'0 0.0
2016-Jun-21 23:33N 34°42' E 135°15'0 0.0
2016-Jun-21 22:33N 34°42' E 135°15'0 0.0
2016-Jun-21 21:33N 34°42' E 135°15'0 0.0
2016-Jun-21 20:33N 34°42' E 135°15'0 0.0
2016-Jun-21 19:33N 34°42' E 135°15'0 0.0
2016-Jun-21 18:32N 34°42' E 135°15'0 0.0
2016-Jun-21 17:33N 34°42' E 135°15'7 6.8
2016-Jun-21 16:33N 34°35' E 135°15'1111.4
2016-Jun-21 15:33N 34°27' E 135°07'228 7.9
2016-Jun-20 10:34N 35°04' E 139°41'1110.6
2016-Jun-20 09:33N 35°14' E 139°46'1010.1
2016-Jun-20 08:34N 35°23' E 139°42'1010.1
2016-Jun-20 07:34N 35°30' E 139°51'1010.0
2016-Jun-20 06:33N 35°39' E 139°58'2 2.2
2016-Jun-20 05:34N 35°41' E 139°58'0 0.0
2016-Jun-20 04:33N 35°41' E 139°58'0 0.0
2016-Jun-20 03:34N 35°41' E 139°58'0 0.0
2016-Jun-20 02:33N 35°41' E 139°58'0 0.0
2016-Jun-20 01:34N 35°41' E 139°58'0 0.0
2016-Jun-20 00:34N 35°41' E 139°58'0 0.0
2016-Jun-19 23:33N 35°41' E 139°58'0 0.0
2016-Jun-19 22:34N 35°41' E 139°58'0 0.0
2016-Jun-19 21:34N 35°41' E 139°58'0 0.0
2016-Jun-19 20:33N 35°41' E 139°58'0 0.0
2016-Jun-19 19:34N 35°41' E 139°58'0 0.0
2016-Jun-19 18:34N 35°41' E 139°58'0 0.0
2016-Jun-19 17:33N 35°41' E 139°58'0 0.0
2016-Jun-19 16:34N 35°41' E 139°58'0 0.0
2016-Jun-19 15:34N 35°41' E 139°58'0 0.0
2016-Jun-19 14:34N 35°41' E 139°58'0 0.0
2016-Jun-19 13:34N 35°41' E 139°58'0 0.0
2016-Jun-19 12:33N 35°41' E 139°58'0 0.0
2016-Jun-19 11:34N 35°41' E 139°58'0 0.0
2016-Jun-19 10:33N 35°41' E 139°58'0 0.0
2016-Jun-19 09:34N 35°41' E 139°58'0 0.0
2016-Jun-19 08:34N 35°41' E 139°58'0 0.0
2016-Jun-19 07:34N 35°41' E 139°58'0 0.0
2016-Jun-19 06:33N 35°41' E 139°58'0 0.0
2016-Jun-19 05:34N 35°41' E 139°58'5 4.9
2016-Jun-19 04:33N 35°36' E 139°57'1111.2
2016-Jun-19 03:34N 35°27' E 139°49'1010.2
2016-Jun-19 02:33N 35°17' E 139°45'1010.2
2016-Jun-19 01:34N 35°07' E 139°46'2010.2
2016-Jun-18 23:33N 34°54' E 139°27'227 9.5
2016-Jun-17 23:32N 34°02' E 134°58'1010.2
2016-Jun-17 22:32N 34°12' E 134°59'1010.0
2016-Jun-17 21:33N 34°22' E 134°60'1010.0
2016-Jun-17 20:32N 34°32' E 135°02'7 6.4
2016-Jun-17 19:24N 34°36' E 134°55'  
Track history (hours):
 
Tides and Currents Weather Stations Pressure Air Temp Water Temp Dewpoint Dewpoint Depression Visibility Wind Speed Wind Dir Waves Ship Positions

Kansai

Last reported at 2016-Jun-27 15:33 UTC. Time now 2016-Jun-28 09:48 UTC.
Position N 34°37' E 134°58'.

Length 73 m; draft 4.2 m.

Type: Cargo ship. MMSI: 431003134.

Date/timePositionNaut miles runAvg speedWind from/ knotsBaromVisibWave heightAir tempDewpointWater temp
2016-Jun-27 15:33N 34°37' E 134°58'9 9.5
2016-Jun-27 14:33N 34°29' E 135°03'234 7.8
2016-Jun-26 08:34N 35°09' E 139°44'9 9.4
2016-Jun-26 07:33N 35°18' E 139°44'8 7.7
2016-Jun-26 06:34N 35°26' E 139°45'5 5.1
2016-Jun-26 05:34N 35°29' E 139°50'5 5.1
2016-Jun-26 04:33N 35°32' E 139°54'6 5.5
2016-Jun-26 03:33N 35°37' E 139°58'4 3.9
2016-Jun-26 02:33N 35°41' E 139°57'0 0.0
2016-Jun-26 01:33N 35°41' E 139°57'0 0.0
2016-Jun-26 00:33N 35°41' E 139°57'0 0.0
2016-Jun-25 23:33N 35°41' E 139°57'0 0.0
2016-Jun-25 22:33N 35°41' E 139°57'0 0.0
2016-Jun-25 21:33N 35°41' E 139°57'0 0.0
2016-Jun-25 20:34N 35°41' E 139°57'0 0.0
2016-Jun-25 19:33N 35°41' E 139°57'0 0.0
2016-Jun-25 18:33N 35°41' E 139°57'0 0.0
2016-Jun-25 17:33N 35°41' E 139°57'0 0.0
2016-Jun-25 16:33N 35°41' E 139°57'0 0.0
2016-Jun-25 15:33N 35°41' E 139°57'0 0.0
2016-Jun-25 14:33N 35°41' E 139°57'0 0.0
2016-Jun-25 13:33N 35°41' E 139°57'0 0.0
2016-Jun-25 12:33N 35°41' E 139°57'0 0.0
2016-Jun-25 11:33N 35°41' E 139°57'0 0.0
2016-Jun-25 10:33N 35°41' E 139°57'0 0.0
2016-Jun-25 09:32N 35°41' E 139°57'0 0.0
2016-Jun-25 08:32N 35°41' E 139°57'0 0.0
2016-Jun-25 07:33N 35°41' E 139°57'0 0.0
2016-Jun-25 06:33N 35°41' E 139°57'0 0.0
2016-Jun-25 05:32N 35°41' E 139°57'0 0.0
2016-Jun-25 04:33N 35°41' E 139°57'0 0.0
2016-Jun-25 03:33N 35°41' E 139°57'0 0.0
2016-Jun-25 02:33N 35°41' E 139°57'0 0.0
2016-Jun-25 01:34N 35°41' E 139°57'0 0.0
2016-Jun-25 00:33N 35°41' E 139°57'0 0.0
2016-Jun-24 23:33N 35°41' E 139°57'0 0.0
2016-Jun-24 22:33N 35°41' E 139°57'0 0.0
2016-Jun-24 21:33N 35°41' E 139°57'0 0.0
2016-Jun-24 20:33N 35°41' E 139°57'0 0.0
2016-Jun-24 19:33N 35°41' E 139°57'5 4.6
2016-Jun-24 18:33N 35°36' E 139°58'1110.7
2016-Jun-24 17:33N 35°27' E 139°50'1110.6
2016-Jun-24 16:33N 35°18' E 139°45'1010.5
2016-Jun-24 15:33N 35°07' E 139°46'244 5.3
2016-Jun-22 17:33N 34°05' E 135°00'1110.0
2016-Jun-22 16:27N 34°16' E 134°59'9 9.3
2016-Jun-22 15:28N 34°24' E 135°04'910.2
2016-Jun-22 14:33N 34°31' E 135°12'9 9.4
2016-Jun-22 13:33N 34°40' E 135°15'2 2.1
2016-Jun-22 12:33N 34°42' E 135°15'0 0.0
2016-Jun-22 11:33N 34°42' E 135°15'0 0.0
2016-Jun-22 10:33N 34°42' E 135°15'0 0.0
2016-Jun-22 09:33N 34°42' E 135°15'0 0.0
2016-Jun-22 08:33N 34°42' E 135°15'0 0.0
2016-Jun-22 07:33N 34°42' E 135°15'0 0.0
2016-Jun-22 06:33N 34°42' E 135°15'0 0.0
2016-Jun-22 05:33N 34°42' E 135°15'0 0.0
2016-Jun-22 04:33N 34°42' E 135°15'0 0.0
2016-Jun-22 03:33N 34°42' E 135°15'0 0.0
2016-Jun-22 02:33N 34°42' E 135°15'0 0.0
2016-Jun-22 01:33N 34°42' E 135°15'0 0.0
2016-Jun-22 00:33N 34°42' E 135°15'0 0.0
2016-Jun-21 23:33N 34°42' E 135°15'0 0.0
2016-Jun-21 22:33N 34°42' E 135°15'0 0.0
2016-Jun-21 21:33N 34°42' E 135°15'0 0.0
2016-Jun-21 20:33N 34°42' E 135°15'0 0.0
2016-Jun-21 19:33N 34°42' E 135°15'0 0.0
2016-Jun-21 18:32N 34°42' E 135°15'0 0.0
2016-Jun-21 17:33N 34°42' E 135°15'7 6.8
2016-Jun-21 16:33N 34°35' E 135°15'1111.4
2016-Jun-21 15:33N 34°27' E 135°07'228 7.9
2016-Jun-20 10:34N 35°04' E 139°41'1110.6
2016-Jun-20 09:33N 35°14' E 139°46'1010.1
2016-Jun-20 08:34N 35°23' E 139°42'1010.1
2016-Jun-20 07:34N 35°30' E 139°51'1010.0
2016-Jun-20 06:33N 35°39' E 139°58'2 2.2
2016-Jun-20 05:34N 35°41' E 139°58'0 0.0
2016-Jun-20 04:33N 35°41' E 139°58'0 0.0
2016-Jun-20 03:34N 35°41' E 139°58'0 0.0
2016-Jun-20 02:33N 35°41' E 139°58'0 0.0
2016-Jun-20 01:34N 35°41' E 139°58'0 0.0
2016-Jun-20 00:34N 35°41' E 139°58'0 0.0
2016-Jun-19 23:33N 35°41' E 139°58'0 0.0
2016-Jun-19 22:34N 35°41' E 139°58'0 0.0
2016-Jun-19 21:34N 35°41' E 139°58'0 0.0
2016-Jun-19 20:33N 35°41' E 139°58'0 0.0
2016-Jun-19 19:34N 35°41' E 139°58'0 0.0
2016-Jun-19 18:34N 35°41' E 139°58'0 0.0
2016-Jun-19 17:33N 35°41' E 139°58'0 0.0
2016-Jun-19 16:34N 35°41' E 139°58'0 0.0
2016-Jun-19 15:34N 35°41' E 139°58'0 0.0
2016-Jun-19 14:34N 35°41' E 139°58'0 0.0
2016-Jun-19 13:34N 35°41' E 139°58'0 0.0
2016-Jun-19 12:33N 35°41' E 139°58'0 0.0
2016-Jun-19 11:34N 35°41' E 139°58'0 0.0
2016-Jun-19 10:33N 35°41' E 139°58'0 0.0
2016-Jun-19 09:34N 35°41' E 139°58'0 0.0
2016-Jun-19 08:34N 35°41' E 139°58'0 0.0
2016-Jun-19 07:34N 35°41' E 139°58'0 0.0
2016-Jun-19 06:33N 35°41' E 139°58'0 0.0
2016-Jun-19 05:34N 35°41' E 139°58'5 4.9
2016-Jun-19 04:33N 35°36' E 139°57'1111.2
2016-Jun-19 03:34N 35°27' E 139°49'1010.2
2016-Jun-19 02:33N 35°17' E 139°45'1010.2
2016-Jun-19 01:34N 35°07' E 139°46'2010.2
2016-Jun-18 23:33N 34°54' E 139°27'227 9.5
2016-Jun-17 23:32N 34°02' E 134°58'1010.2
2016-Jun-17 22:32N 34°12' E 134°59'1010.0
2016-Jun-17 21:33N 34°22' E 134°60'1010.0
2016-Jun-17 20:32N 34°32' E 135°02'7 6.4
2016-Jun-17 19:24N 34°36' E 134°55'  

Dump ship's entire track history